WMT6039 EGGW-LRSB
Flight info
| Callsign | WMT6039 |
|---|---|
| Flight time | 2h 28m |
| Altitude | 37000 |
| Route | MATCH Q295 BRAIN M197 REDFA DCT TACHA DCT GISEB DCT BADGO DCT SWALM DCT VELIS DCT OKG DCT PEPIK DCT UVERA DCT BUDOP DCT IBINU |
| Aircraft | A320/M-SDE3FGHIRWY/LB1 |
Departure
| Time | 2026-05-04 13:55 |
|---|---|
| Airport | London Luton Airport (EGGW) |
Arrival
| Time | 2026-05-04 16:23 |
|---|---|
| Airport | Sibiu International Airport (LRSB) |
| Time | Latitude | Longitude | Altitude | Speed | Heading |
|---|---|---|---|---|---|
| 2026-05-04 13:29 | 51.88104 | -0.37282 | 509 ft | 0 kts | 342° |
| 2026-05-04 13:46 | 51.88082 | -0.37271 | 508 ft | 4 kts | 342° |
| 2026-05-04 13:46 | 51.88060 | -0.37254 | 508 ft | 4 kts | 308° |
| 2026-05-04 13:46 | 51.88049 | -0.37228 | 508 ft | 4 kts | 334° |
| 2026-05-04 13:47 | 51.88038 | -0.37233 | 508 ft | 4 kts | 65° |
| 2026-05-04 13:47 | 51.88030 | -0.37268 | 508 ft | 1 kts | 72° |
| 2026-05-04 13:47 | 51.88030 | -0.37269 | 508 ft | 0 kts | 72° |
| 2026-05-04 13:50 | 51.88032 | -0.37262 | 508 ft | 4 kts | 72° |
| 2026-05-04 13:51 | 51.88018 | -0.37137 | 508 ft | 21 kts | 144° |
| 2026-05-04 13:51 | 51.87863 | -0.37051 | 511 ft | 24 kts | 162° |
| 2026-05-04 13:51 | 51.87717 | -0.36972 | 521 ft | 21 kts | 161° |
| 2026-05-04 13:51 | 51.87624 | -0.37012 | 522 ft | 17 kts | 243° |
| 2026-05-04 13:52 | 51.87564 | -0.37445 | 522 ft | 19 kts | 226° |
| 2026-05-04 13:52 | 51.87495 | -0.37592 | 522 ft | 18 kts | 251° |
| 2026-05-04 13:52 | 51.87461 | -0.37791 | 522 ft | 20 kts | 254° |
| 2026-05-04 13:53 | 51.87419 | -0.38005 | 524 ft | 20 kts | 237° |
| 2026-05-04 13:53 | 51.87338 | -0.38094 | 522 ft | 5 kts | 205° |
| 2026-05-04 13:53 | 51.87337 | -0.38094 | 522 ft | 0 kts | 205° |
| 2026-05-04 13:54 | 51.87256 | -0.38033 | 524 ft | 11 kts | 77° |
| 2026-05-04 13:54 | 51.87295 | -0.37812 | 524 ft | 46 kts | 74° |
| 2026-05-04 13:54 | 51.87737 | -0.35258 | 754 ft | 161 kts | 72° |
| 2026-05-04 13:55 | 51.88047 | -0.33438 | 1735 ft | 161 kts | 71° |
| 2026-05-04 13:55 | 51.88658 | -0.29906 | 2864 ft | 176 kts | 73° |
| 2026-05-04 13:55 | 51.89010 | -0.27878 | 3034 ft | 199 kts | 74° |
| 2026-05-04 13:56 | 51.89405 | -0.25590 | 3231 ft | 223 kts | 74° |
| 2026-05-04 13:56 | 51.89497 | -0.22942 | 3545 ft | 249 kts | 105° |
| 2026-05-04 13:56 | 51.86767 | -0.19026 | 5017 ft | 265 kts | 156° |
| 2026-05-04 13:57 | 51.85212 | -0.17904 | 5844 ft | 266 kts | 158° |
| 2026-05-04 13:57 | 51.83498 | -0.16710 | 6704 ft | 268 kts | 159° |
| 2026-05-04 13:58 | 51.78269 | -0.13037 | 8997 ft | 280 kts | 158° |
| 2026-05-04 13:58 | 51.75755 | -0.09536 | 10234 ft | 293 kts | 116° |
| 2026-05-04 13:58 | 51.75387 | -0.04997 | 10977 ft | 311 kts | 85° |
| 2026-05-04 13:59 | 51.75645 | -0.01463 | 11163 ft | 334 kts | 83° |
| 2026-05-04 13:59 | 51.75873 | 0.01192 | 11307 ft | 343 kts | 82° |
| 2026-05-04 13:59 | 51.76626 | 0.09417 | 14056 ft | 313 kts | 83° |
| 2026-05-04 14:00 | 51.76833 | 0.11821 | 14154 ft | 328 kts | 83° |
| 2026-05-04 14:00 | 51.77459 | 0.19564 | 14464 ft | 365 kts | 84° |
| 2026-05-04 14:00 | 51.77786 | 0.23664 | 14908 ft | 371 kts | 84° |
| 2026-05-04 14:01 | 51.78122 | 0.27825 | 15478 ft | 374 kts | 84° |
| 2026-05-04 14:01 | 51.78462 | 0.31997 | 16048 ft | 376 kts | 84° |
| 2026-05-04 14:01 | 51.79149 | 0.40438 | 17178 ft | 380 kts | 84° |
| 2026-05-04 14:02 | 51.79494 | 0.44704 | 17744 ft | 383 kts | 84° |
| 2026-05-04 14:02 | 51.79835 | 0.48981 | 18296 ft | 385 kts | 84° |
| 2026-05-04 14:02 | 51.80175 | 0.53291 | 18785 ft | 388 kts | 84° |
| 2026-05-04 14:02 | 51.80512 | 0.57628 | 19260 ft | 391 kts | 84° |
| 2026-05-04 14:03 | 51.80855 | 0.62012 | 19725 ft | 395 kts | 84° |
| 2026-05-04 14:03 | 51.81287 | 0.66373 | 20156 ft | 400 kts | 77° |
| 2026-05-04 14:03 | 51.81982 | 0.70811 | 20603 ft | 403 kts | 77° |
| 2026-05-04 14:03 | 51.82667 | 0.75212 | 21048 ft | 406 kts | 77° |
| 2026-05-04 14:04 | 51.84051 | 0.84079 | 21928 ft | 412 kts | 76° |
| 2026-05-04 14:04 | 51.84828 | 0.88560 | 22332 ft | 415 kts | 75° |
| 2026-05-04 14:04 | 51.85664 | 0.93096 | 22768 ft | 418 kts | 74° |
| 2026-05-04 14:05 | 51.87377 | 1.02164 | 23495 ft | 426 kts | 73° |
| 2026-05-04 14:05 | 51.88235 | 1.06776 | 23839 ft | 430 kts | 74° |
| 2026-05-04 14:05 | 51.89089 | 1.11435 | 24201 ft | 432 kts | 74° |
| 2026-05-04 14:06 | 51.89932 | 1.16105 | 24547 ft | 434 kts | 75° |
| 2026-05-04 14:06 | 51.90774 | 1.20811 | 24909 ft | 436 kts | 75° |
| 2026-05-04 14:06 | 51.91617 | 1.25545 | 25264 ft | 439 kts | 75° |
| 2026-05-04 14:06 | 51.92465 | 1.30311 | 25606 ft | 441 kts | 75° |
| 2026-05-04 14:07 | 51.93312 | 1.35086 | 25945 ft | 443 kts | 75° |
| 2026-05-04 14:07 | 51.94166 | 1.39905 | 26285 ft | 445 kts | 75° |
| 2026-05-04 14:07 | 51.95018 | 1.44728 | 26615 ft | 447 kts | 75° |
| 2026-05-04 14:07 | 51.95889 | 1.49672 | 26937 ft | 449 kts | 76° |
| 2026-05-04 14:08 | 51.96737 | 1.54485 | 27268 ft | 452 kts | 76° |
| 2026-05-04 14:08 | 51.97601 | 1.59401 | 27598 ft | 454 kts | 76° |
| 2026-05-04 14:08 | 51.98466 | 1.64335 | 27942 ft | 456 kts | 76° |
| 2026-05-04 14:08 | 51.99332 | 1.69291 | 28279 ft | 458 kts | 76° |
| 2026-05-04 14:09 | 52.00958 | 1.79331 | 28957 ft | 460 kts | 78° |
| 2026-05-04 14:09 | 52.01723 | 1.84375 | 29422 ft | 459 kts | 78° |
| 2026-05-04 14:10 | 52.03231 | 1.94460 | 30319 ft | 457 kts | 78° |
| 2026-05-04 14:10 | 52.03993 | 1.99490 | 30660 ft | 458 kts | 79° |
| 2026-05-04 14:10 | 52.04763 | 2.04513 | 31012 ft | 458 kts | 79° |
| 2026-05-04 14:10 | 52.05538 | 2.09543 | 31377 ft | 458 kts | 78° |
| 2026-05-04 14:11 | 52.06308 | 2.14546 | 31747 ft | 458 kts | 79° |
| 2026-05-04 14:11 | 52.07843 | 2.24612 | 32508 ft | 457 kts | 79° |
| 2026-05-04 14:11 | 52.08601 | 2.29624 | 32885 ft | 457 kts | 79° |
| 2026-05-04 14:12 | 52.09356 | 2.34649 | 33271 ft | 457 kts | 79° |
| 2026-05-04 14:12 | 52.10105 | 2.39663 | 33647 ft | 457 kts | 79° |
| 2026-05-04 14:12 | 52.11605 | 2.49710 | 34255 ft | 458 kts | 78° |
| 2026-05-04 14:13 | 52.12449 | 2.54708 | 34489 ft | 460 kts | 76° |
| 2026-05-04 14:13 | 52.13387 | 2.59699 | 34766 ft | 460 kts | 75° |
| 2026-05-04 14:13 | 52.14377 | 2.64656 | 35067 ft | 460 kts | 74° |
| 2026-05-04 14:13 | 52.15376 | 2.69587 | 35351 ft | 459 kts | 74° |
| 2026-05-04 14:14 | 52.16364 | 2.74534 | 35644 ft | 458 kts | 75° |
| 2026-05-04 14:14 | 52.18264 | 2.84428 | 36202 ft | 457 kts | 75° |
| 2026-05-04 14:14 | 52.19192 | 2.89395 | 36478 ft | 456 kts | 75° |
| 2026-05-04 14:15 | 52.21018 | 2.99284 | 36947 ft | 456 kts | 76° |
| 2026-05-04 14:15 | 52.22863 | 3.09268 | 37013 ft | 464 kts | 76° |
| 2026-05-04 14:16 | 52.24648 | 3.24730 | 37016 ft | 462 kts | 95° |
| 2026-05-04 14:17 | 52.23497 | 3.34983 | 37010 ft | 455 kts | 111° |
| 2026-05-04 14:17 | 52.22531 | 3.39904 | 37017 ft | 454 kts | 111° |
| 2026-05-04 14:18 | 52.19655 | 3.54594 | 37012 ft | 454 kts | 111° |
| 2026-05-04 14:19 | 52.15783 | 3.74200 | 37009 ft | 454 kts | 112° |
| 2026-05-04 14:19 | 52.13835 | 3.83986 | 37011 ft | 454 kts | 112° |
| 2026-05-04 14:20 | 52.11869 | 3.93780 | 36985 ft | 454 kts | 112° |
| 2026-05-04 14:20 | 52.09896 | 4.03551 | 36993 ft | 455 kts | 112° |
| 2026-05-04 14:21 | 52.06926 | 4.18217 | 37002 ft | 455 kts | 112° |
| 2026-05-04 14:21 | 52.04935 | 4.27982 | 37003 ft | 455 kts | 112° |
| 2026-05-04 14:22 | 52.02956 | 4.37654 | 36986 ft | 455 kts | 112° |
| 2026-05-04 14:22 | 52.00943 | 4.47399 | 36984 ft | 455 kts | 112° |
| 2026-05-04 14:23 | 51.97916 | 4.62002 | 36988 ft | 455 kts | 112° |
| 2026-05-04 14:24 | 51.95895 | 4.71726 | 37001 ft | 455 kts | 113° |
| 2026-05-04 14:24 | 51.93887 | 4.81321 | 36995 ft | 454 kts | 113° |
| 2026-05-04 14:25 | 51.91821 | 4.91119 | 36990 ft | 454 kts | 113° |
| 2026-05-04 14:25 | 51.88688 | 5.05590 | 36991 ft | 454 kts | 114° |
| 2026-05-04 14:26 | 51.86462 | 5.15164 | 36996 ft | 453 kts | 115° |
| 2026-05-04 14:26 | 51.84209 | 5.24693 | 37006 ft | 454 kts | 115° |
| 2026-05-04 14:27 | 51.81971 | 5.34236 | 36985 ft | 454 kts | 115° |
| 2026-05-04 14:27 | 51.79738 | 5.43784 | 36971 ft | 454 kts | 115° |
| 2026-05-04 14:28 | 51.77497 | 5.53340 | 36982 ft | 455 kts | 115° |
| 2026-05-04 14:28 | 51.75250 | 5.62851 | 36979 ft | 456 kts | 115° |
| 2026-05-04 14:29 | 51.71056 | 5.80395 | 36980 ft | 456 kts | 115° |
| 2026-05-04 14:30 | 51.68783 | 5.89903 | 36966 ft | 457 kts | 116° |
| 2026-05-04 14:31 | 51.65320 | 6.04313 | 36948 ft | 459 kts | 116° |
| 2026-05-04 14:32 | 51.60674 | 6.23442 | 36980 ft | 457 kts | 116° |
| 2026-05-04 14:32 | 51.58345 | 6.32933 | 36966 ft | 457 kts | 116° |
| 2026-05-04 14:33 | 51.55988 | 6.42521 | 36964 ft | 458 kts | 116° |
| 2026-05-04 14:33 | 51.53635 | 6.52066 | 36974 ft | 459 kts | 116° |
| 2026-05-04 14:34 | 51.51279 | 6.61594 | 36987 ft | 459 kts | 116° |
| 2026-05-04 14:34 | 51.48907 | 6.71120 | 36991 ft | 459 kts | 116° |
| 2026-05-04 14:35 | 51.46530 | 6.80635 | 36981 ft | 460 kts | 116° |
| 2026-05-04 14:35 | 51.44144 | 6.90166 | 36983 ft | 461 kts | 116° |
| 2026-05-04 14:36 | 51.41750 | 6.99689 | 36983 ft | 461 kts | 116° |
| 2026-05-04 14:36 | 51.39340 | 7.09205 | 36986 ft | 461 kts | 116° |
| 2026-05-04 14:37 | 51.36918 | 7.18738 | 36986 ft | 462 kts | 116° |
| 2026-05-04 14:37 | 51.34490 | 7.28257 | 36955 ft | 461 kts | 116° |
| 2026-05-04 14:38 | 51.32058 | 7.37756 | 36967 ft | 461 kts | 116° |
| 2026-05-04 14:38 | 51.29618 | 7.47241 | 36992 ft | 461 kts | 116° |
| 2026-05-04 14:39 | 51.27170 | 7.56716 | 36989 ft | 460 kts | 116° |
| 2026-05-04 14:39 | 51.24724 | 7.66167 | 36975 ft | 460 kts | 117° |
| 2026-05-04 14:40 | 51.21026 | 7.80328 | 36987 ft | 460 kts | 117° |
| 2026-05-04 14:40 | 51.18555 | 7.89745 | 36996 ft | 460 kts | 117° |
| 2026-05-04 14:41 | 51.16078 | 7.99154 | 36990 ft | 460 kts | 117° |
| 2026-05-04 14:42 | 51.11107 | 8.17974 | 36982 ft | 461 kts | 117° |
| 2026-05-04 14:42 | 51.08278 | 8.27053 | 36988 ft | 455 kts | 126° |
| 2026-05-04 14:43 | 51.04934 | 8.35700 | 36987 ft | 455 kts | 126° |
| 2026-05-04 14:43 | 51.01619 | 8.44284 | 36981 ft | 455 kts | 126° |
| 2026-05-04 14:44 | 50.98677 | 8.53157 | 36971 ft | 462 kts | 113° |
| 2026-05-04 14:44 | 50.96530 | 8.62938 | 36979 ft | 463 kts | 113° |
| 2026-05-04 14:45 | 50.94439 | 8.72606 | 36981 ft | 463 kts | 113° |
| 2026-05-04 14:45 | 50.92335 | 8.82264 | 36987 ft | 463 kts | 113° |
| 2026-05-04 14:46 | 50.90208 | 8.91912 | 36984 ft | 463 kts | 113° |
| 2026-05-04 14:46 | 50.88066 | 9.01532 | 36981 ft | 463 kts | 113° |
| 2026-05-04 14:47 | 50.85919 | 9.11147 | 36979 ft | 463 kts | 113° |
| 2026-05-04 14:47 | 50.83773 | 9.20769 | 36979 ft | 463 kts | 113° |
| 2026-05-04 14:48 | 50.81620 | 9.30378 | 36985 ft | 463 kts | 114° |
| 2026-05-04 14:48 | 50.79446 | 9.39989 | 36988 ft | 463 kts | 114° |
| 2026-05-04 14:49 | 50.77268 | 9.49592 | 36984 ft | 463 kts | 114° |
| 2026-05-04 14:49 | 50.75084 | 9.59174 | 36991 ft | 463 kts | 114° |
| 2026-05-04 14:50 | 50.72895 | 9.68734 | 36994 ft | 463 kts | 114° |
| 2026-05-04 14:50 | 50.70705 | 9.78306 | 36995 ft | 463 kts | 114° |
| 2026-05-04 14:51 | 50.68504 | 9.87858 | 36977 ft | 463 kts | 114° |
| 2026-05-04 14:51 | 50.66287 | 9.97426 | 36977 ft | 464 kts | 114° |
| 2026-05-04 14:52 | 50.64072 | 10.06926 | 36982 ft | 464 kts | 114° |
| 2026-05-04 14:52 | 50.62202 | 10.14921 | 36988 ft | 464 kts | 114° |
| 2026-05-04 14:53 | 50.59961 | 10.24475 | 36989 ft | 464 kts | 114° |
| 2026-05-04 14:53 | 50.57709 | 10.34010 | 36993 ft | 465 kts | 114° |
| 2026-05-04 14:54 | 50.55447 | 10.43531 | 36995 ft | 464 kts | 114° |
| 2026-05-04 14:54 | 50.53183 | 10.53043 | 36997 ft | 464 kts | 114° |
| 2026-05-04 14:55 | 50.50924 | 10.62537 | 36998 ft | 464 kts | 114° |
| 2026-05-04 14:55 | 50.48641 | 10.72053 | 36992 ft | 464 kts | 114° |
| 2026-05-04 14:56 | 50.46357 | 10.81529 | 36994 ft | 464 kts | 114° |
| 2026-05-04 14:56 | 50.44056 | 10.91004 | 36996 ft | 465 kts | 114° |
| 2026-05-04 14:57 | 50.41749 | 11.00473 | 37004 ft | 465 kts | 114° |
| 2026-05-04 14:57 | 50.39437 | 11.09969 | 37003 ft | 465 kts | 114° |
| 2026-05-04 14:58 | 50.37122 | 11.19430 | 36989 ft | 465 kts | 114° |
| 2026-05-04 14:58 | 50.34787 | 11.28883 | 36993 ft | 464 kts | 114° |
| 2026-05-04 14:59 | 50.32450 | 11.38310 | 36996 ft | 464 kts | 114° |
| 2026-05-04 15:00 | 50.28942 | 11.52414 | 36997 ft | 464 kts | 114° |
| 2026-05-04 15:00 | 50.26592 | 11.61820 | 36996 ft | 464 kts | 114° |
| 2026-05-04 15:01 | 50.23054 | 11.75908 | 37022 ft | 464 kts | 114° |
| 2026-05-04 15:01 | 50.20687 | 11.85282 | 37004 ft | 464 kts | 114° |
| 2026-05-04 15:02 | 50.18307 | 11.94649 | 37013 ft | 464 kts | 115° |
| 2026-05-04 15:02 | 50.15916 | 12.04022 | 37001 ft | 464 kts | 114° |
| 2026-05-04 15:03 | 50.13527 | 12.13389 | 36996 ft | 465 kts | 114° |
| 2026-05-04 15:03 | 50.11134 | 12.22744 | 36986 ft | 465 kts | 115° |
| 2026-05-04 15:04 | 50.08720 | 12.32090 | 36988 ft | 465 kts | 115° |
| 2026-05-04 15:04 | 50.06298 | 12.41433 | 36985 ft | 465 kts | 114° |
| 2026-05-04 15:05 | 50.03944 | 12.50813 | 36989 ft | 465 kts | 114° |
| 2026-05-04 15:05 | 50.01634 | 12.60205 | 36995 ft | 465 kts | 114° |
| 2026-05-04 15:06 | 49.99299 | 12.69573 | 36997 ft | 464 kts | 114° |
| 2026-05-04 15:07 | 49.95772 | 12.83597 | 36980 ft | 463 kts | 114° |
| 2026-05-04 15:07 | 49.93408 | 12.92906 | 36980 ft | 463 kts | 114° |
| 2026-05-04 15:08 | 49.91042 | 13.02222 | 36954 ft | 463 kts | 114° |
| 2026-05-04 15:08 | 49.88672 | 13.11521 | 36967 ft | 463 kts | 114° |
| 2026-05-04 15:09 | 49.86299 | 13.20782 | 36984 ft | 463 kts | 114° |
| 2026-05-04 15:09 | 49.83926 | 13.30002 | 36986 ft | 463 kts | 114° |
| 2026-05-04 15:10 | 49.80349 | 13.43888 | 36989 ft | 462 kts | 114° |
| 2026-05-04 15:11 | 49.76740 | 13.57766 | 36990 ft | 463 kts | 114° |
| 2026-05-04 15:11 | 49.74327 | 13.66991 | 36982 ft | 462 kts | 114° |
| 2026-05-04 15:12 | 49.71902 | 13.76218 | 36967 ft | 464 kts | 114° |
| 2026-05-04 15:12 | 49.69464 | 13.85463 | 36971 ft | 465 kts | 114° |
| 2026-05-04 15:13 | 49.67021 | 13.94720 | 36975 ft | 465 kts | 114° |
| 2026-05-04 15:13 | 49.64571 | 14.03970 | 36981 ft | 465 kts | 115° |
| 2026-05-04 15:14 | 49.62101 | 14.13214 | 36975 ft | 466 kts | 114° |
| 2026-05-04 15:14 | 49.59624 | 14.22458 | 36980 ft | 466 kts | 114° |
| 2026-05-04 15:15 | 49.57146 | 14.31707 | 36986 ft | 466 kts | 114° |
| 2026-05-04 15:15 | 49.54660 | 14.40933 | 36990 ft | 467 kts | 115° |
| 2026-05-04 15:16 | 49.50907 | 14.54758 | 36991 ft | 467 kts | 114° |
| 2026-05-04 15:17 | 49.47138 | 14.68590 | 36989 ft | 467 kts | 115° |
| 2026-05-04 15:17 | 49.43344 | 14.82398 | 36995 ft | 467 kts | 115° |
| 2026-05-04 15:18 | 49.40817 | 14.91571 | 36989 ft | 466 kts | 115° |
| 2026-05-04 15:19 | 49.36971 | 15.05478 | 36995 ft | 466 kts | 115° |
| 2026-05-04 15:19 | 49.33153 | 15.19181 | 36996 ft | 466 kts | 115° |
| 2026-05-04 15:20 | 49.31010 | 15.26830 | 36996 ft | 466 kts | 115° |
| 2026-05-04 15:20 | 49.28451 | 15.35952 | 36994 ft | 466 kts | 115° |
| 2026-05-04 15:21 | 49.25878 | 15.45075 | 37000 ft | 466 kts | 115° |
| 2026-05-04 15:22 | 49.22022 | 15.58666 | 36994 ft | 466 kts | 115° |
| 2026-05-04 15:22 | 49.18143 | 15.72278 | 36989 ft | 465 kts | 115° |
| 2026-05-04 15:23 | 49.15534 | 15.81402 | 36994 ft | 465 kts | 115° |
| 2026-05-04 15:23 | 49.12933 | 15.90458 | 36990 ft | 465 kts | 115° |
| 2026-05-04 15:24 | 49.07718 | 16.08484 | 37016 ft | 466 kts | 115° |
| 2026-05-04 15:25 | 49.05091 | 16.17524 | 37006 ft | 466 kts | 115° |
| 2026-05-04 15:26 | 49.01123 | 16.31124 | 37000 ft | 466 kts | 115° |
| 2026-05-04 15:26 | 48.97163 | 16.44599 | 37001 ft | 466 kts | 115° |
| 2026-05-04 15:27 | 48.93181 | 16.58088 | 36999 ft | 465 kts | 115° |
| 2026-05-04 15:28 | 48.89191 | 16.71541 | 36988 ft | 465 kts | 115° |
| 2026-05-04 15:29 | 48.85185 | 16.84958 | 36998 ft | 464 kts | 115° |
| 2026-05-04 15:30 | 48.74967 | 17.15342 | 37013 ft | 461 kts | 125° |
| 2026-05-04 15:31 | 48.69586 | 17.27414 | 36999 ft | 461 kts | 124° |
| 2026-05-04 15:32 | 48.60579 | 17.47504 | 37012 ft | 461 kts | 125° |
| 2026-05-04 15:34 | 48.51530 | 17.67518 | 37025 ft | 461 kts | 125° |
| 2026-05-04 15:34 | 48.46095 | 17.79476 | 37014 ft | 461 kts | 125° |
| 2026-05-04 15:35 | 48.40639 | 17.91400 | 37027 ft | 460 kts | 125° |
| 2026-05-04 15:36 | 48.35184 | 18.03291 | 37028 ft | 460 kts | 125° |
| 2026-05-04 15:36 | 48.31524 | 18.11247 | 37032 ft | 459 kts | 125° |
| 2026-05-04 15:37 | 48.27885 | 18.19139 | 37024 ft | 459 kts | 125° |
| 2026-05-04 15:37 | 48.24211 | 18.27065 | 37029 ft | 459 kts | 125° |
| 2026-05-04 15:38 | 48.20554 | 18.34933 | 37045 ft | 459 kts | 124° |
| 2026-05-04 15:38 | 48.16894 | 18.42788 | 37046 ft | 459 kts | 125° |
| 2026-05-04 15:39 | 48.13232 | 18.50620 | 37045 ft | 459 kts | 125° |
| 2026-05-04 15:40 | 48.07743 | 18.62340 | 37051 ft | 458 kts | 124° |
| 2026-05-04 15:40 | 48.04072 | 18.70138 | 37051 ft | 458 kts | 125° |
| 2026-05-04 15:41 | 48.00390 | 18.77928 | 37058 ft | 458 kts | 125° |
| 2026-05-04 15:41 | 47.96721 | 18.85688 | 37065 ft | 458 kts | 125° |
| 2026-05-04 15:42 | 47.93043 | 18.93444 | 37046 ft | 458 kts | 125° |
| 2026-05-04 15:42 | 47.89358 | 19.01198 | 37059 ft | 458 kts | 125° |
| 2026-05-04 15:43 | 47.85662 | 19.08932 | 37064 ft | 458 kts | 125° |
| 2026-05-04 15:43 | 47.81955 | 19.16663 | 37055 ft | 458 kts | 125° |
| 2026-05-04 15:44 | 47.78256 | 19.24381 | 37061 ft | 458 kts | 125° |
| 2026-05-04 15:44 | 47.74547 | 19.32097 | 37073 ft | 458 kts | 125° |
| 2026-05-04 15:45 | 47.70834 | 19.39789 | 37073 ft | 458 kts | 125° |
| 2026-05-04 15:45 | 47.67110 | 19.47469 | 37076 ft | 458 kts | 125° |
| 2026-05-04 15:46 | 47.63380 | 19.55136 | 37078 ft | 457 kts | 125° |
| 2026-05-04 15:46 | 47.59669 | 19.62756 | 37077 ft | 457 kts | 124° |
| 2026-05-04 15:47 | 47.55946 | 19.70395 | 37077 ft | 457 kts | 124° |
| 2026-05-04 15:47 | 47.52218 | 19.78015 | 37077 ft | 457 kts | 125° |
| 2026-05-04 15:48 | 47.48473 | 19.85652 | 37080 ft | 457 kts | 125° |
| 2026-05-04 15:48 | 47.43477 | 19.95800 | 37098 ft | 458 kts | 124° |
| 2026-05-04 15:49 | 47.39720 | 20.03392 | 37090 ft | 458 kts | 124° |
| 2026-05-04 15:49 | 47.35954 | 20.10986 | 37077 ft | 457 kts | 124° |
| 2026-05-04 15:50 | 47.32190 | 20.18566 | 37083 ft | 457 kts | 124° |
| 2026-05-04 15:50 | 47.28424 | 20.26123 | 37072 ft | 457 kts | 125° |
| 2026-05-04 15:51 | 47.24655 | 20.33674 | 37072 ft | 457 kts | 124° |
| 2026-05-04 15:51 | 47.20867 | 20.41231 | 37066 ft | 457 kts | 124° |
| 2026-05-04 15:52 | 47.17166 | 20.48776 | 37070 ft | 457 kts | 123° |
| 2026-05-04 15:52 | 47.13564 | 20.56483 | 37091 ft | 457 kts | 122° |
| 2026-05-04 15:53 | 47.09944 | 20.64243 | 37087 ft | 457 kts | 123° |
| 2026-05-04 15:53 | 47.06311 | 20.71897 | 37086 ft | 457 kts | 123° |
| 2026-05-04 15:54 | 47.02663 | 20.79522 | 37088 ft | 457 kts | 123° |
| 2026-05-04 15:54 | 46.99013 | 20.87148 | 37087 ft | 457 kts | 123° |
| 2026-05-04 15:55 | 46.95378 | 20.94726 | 37100 ft | 457 kts | 123° |
| 2026-05-04 15:55 | 46.91725 | 21.02332 | 37099 ft | 456 kts | 123° |
| 2026-05-04 15:56 | 46.88043 | 21.09971 | 37098 ft | 456 kts | 123° |
| 2026-05-04 15:56 | 46.84375 | 21.17560 | 37098 ft | 457 kts | 123° |
| 2026-05-04 15:57 | 46.80731 | 21.25086 | 37111 ft | 456 kts | 123° |
| 2026-05-04 15:57 | 46.77033 | 21.32710 | 37107 ft | 456 kts | 123° |
| 2026-05-04 15:58 | 46.73380 | 21.40202 | 37108 ft | 456 kts | 123° |
| 2026-05-04 15:58 | 46.69694 | 21.47736 | 37105 ft | 456 kts | 123° |
| 2026-05-04 15:59 | 46.66152 | 21.55390 | 37104 ft | 455 kts | 120° |
| 2026-05-04 15:59 | 46.62910 | 21.63303 | 37110 ft | 454 kts | 118° |
| 2026-05-04 16:00 | 46.59710 | 21.71215 | 37103 ft | 453 kts | 119° |
| 2026-05-04 16:00 | 46.56982 | 21.79423 | 37098 ft | 450 kts | 108° |
| 2026-05-04 16:01 | 46.54780 | 21.88009 | 37097 ft | 450 kts | 108° |
| 2026-05-04 16:01 | 46.52598 | 21.96520 | 37107 ft | 450 kts | 108° |
| 2026-05-04 16:02 | 46.50406 | 22.05032 | 37103 ft | 450 kts | 108° |
| 2026-05-04 16:02 | 46.48203 | 22.13546 | 36458 ft | 454 kts | 108° |
| 2026-05-04 16:03 | 46.47081 | 22.17875 | 35655 ft | 459 kts | 108° |
| 2026-05-04 16:03 | 46.45953 | 22.22210 | 34930 ft | 461 kts | 108° |
| 2026-05-04 16:03 | 46.44816 | 22.26573 | 34133 ft | 465 kts | 108° |
| 2026-05-04 16:03 | 46.43668 | 22.30983 | 33176 ft | 470 kts | 108° |
| 2026-05-04 16:04 | 46.42516 | 22.35396 | 32718 ft | 463 kts | 108° |
| 2026-05-04 16:04 | 46.40244 | 22.44033 | 31612 ft | 455 kts | 108° |
| 2026-05-04 16:04 | 46.39120 | 22.48302 | 31069 ft | 451 kts | 108° |
| 2026-05-04 16:05 | 46.37992 | 22.52587 | 30516 ft | 448 kts | 108° |
| 2026-05-04 16:05 | 46.36886 | 22.56783 | 29940 ft | 444 kts | 108° |
| 2026-05-04 16:05 | 46.34713 | 22.64991 | 28859 ft | 434 kts | 109° |
| 2026-05-04 16:06 | 46.33636 | 22.69040 | 28336 ft | 428 kts | 109° |
| 2026-05-04 16:06 | 46.30815 | 22.79631 | 26996 ft | 416 kts | 109° |
| 2026-05-04 16:07 | 46.29445 | 22.84766 | 26351 ft | 410 kts | 108° |
| 2026-05-04 16:07 | 46.26394 | 22.96170 | 24992 ft | 398 kts | 109° |
| 2026-05-04 16:08 | 46.25393 | 22.99893 | 24566 ft | 396 kts | 109° |
| 2026-05-04 16:08 | 46.22423 | 23.10899 | 23187 ft | 389 kts | 109° |
| 2026-05-04 16:09 | 46.20475 | 23.18084 | 22284 ft | 380 kts | 109° |
| 2026-05-04 16:09 | 46.18568 | 23.25110 | 21393 ft | 373 kts | 108° |
| 2026-05-04 16:10 | 46.16678 | 23.32038 | 20475 ft | 367 kts | 108° |
| 2026-05-04 16:11 | 46.13882 | 23.42270 | 19052 ft | 359 kts | 108° |
| 2026-05-04 16:11 | 46.12955 | 23.45651 | 18583 ft | 356 kts | 108° |
| 2026-05-04 16:12 | 46.10259 | 23.55456 | 17180 ft | 347 kts | 108° |
| 2026-05-04 16:12 | 46.07633 | 23.64995 | 15824 ft | 338 kts | 108° |
| 2026-05-04 16:13 | 46.06184 | 23.70243 | 15075 ft | 334 kts | 108° |
| 2026-05-04 16:13 | 46.04481 | 23.76407 | 14200 ft | 329 kts | 108° |
| 2026-05-04 16:14 | 46.02784 | 23.82501 | 13287 ft | 325 kts | 109° |
| 2026-05-04 16:14 | 46.01112 | 23.88482 | 12437 ft | 319 kts | 109° |
| 2026-05-04 16:15 | 45.98643 | 23.97287 | 11186 ft | 313 kts | 109° |
| 2026-05-04 16:16 | 45.97018 | 24.03081 | 10368 ft | 311 kts | 110° |
| 2026-05-04 16:16 | 45.94696 | 24.11319 | 9850 ft | 285 kts | 110° |
| 2026-05-04 16:17 | 45.93194 | 24.16651 | 8999 ft | 288 kts | 110° |
| 2026-05-04 16:18 | 45.90963 | 24.24543 | 8062 ft | 283 kts | 110° |
| 2026-05-04 16:18 | 45.90217 | 24.27167 | 7697 ft | 283 kts | 110° |
| 2026-05-04 16:19 | 45.87069 | 24.33731 | 7250 ft | 269 kts | 153° |
| 2026-05-04 16:19 | 45.83416 | 24.34342 | 6751 ft | 265 kts | 180° |
| 2026-05-04 16:20 | 45.78655 | 24.31365 | 5415 ft | 255 kts | 247° |
| 2026-05-04 16:20 | 45.78262 | 24.26556 | 4283 ft | 236 kts | 275° |
| 2026-05-04 16:21 | 45.78393 | 24.19874 | 2826 ft | 198 kts | 274° |
| 2026-05-04 16:22 | 45.78454 | 24.16321 | 2330 ft | 157 kts | 274° |
| 2026-05-04 16:22 | 45.78532 | 24.11894 | 1719 ft | 141 kts | 276° |
| 2026-05-04 16:23 | 45.78586 | 24.08509 | 1480 ft | 23 kts | 271° |
| 2026-05-04 16:24 | 45.78817 | 24.08602 | 1468 ft | 16 kts | 92° |
| 2026-05-04 16:25 | 45.78812 | 24.08890 | 1460 ft | 14 kts | 91° |
| 2026-05-04 16:26 | 45.78804 | 24.09367 | 1460 ft | 3 kts | 92° |
| 2026-05-04 16:26 | 45.78815 | 24.09524 | 1457 ft | 2 kts | 33° |
| 2026-05-04 16:27 | 45.78850 | 24.09525 | 1460 ft | 2 kts | 360° |
| 2026-05-04 16:28 | 45.78851 | 24.09525 | 1460 ft | 0 kts | 360° |